KCEW/CEW METAR and TAF weather

Enter ICAO airport designator
Station Type Date Time Source
KCEW METAR 2018/10/19 15:25 UTC NOAA

KCEW 191525Z AUTO 09005KT 10SM OVC010 24/19 A3026 RMK AO2 T02390194


Station Type Date Time Source
KCEW Decoded METAR 2018/10/19 15:25 UTC NOAA

CRESTVIEW SIKES AIRPORT, FL, United States (KCEW) 30-46N 086-31W 55M
Oct 19, 2018 - 11:25 AM EDT / 2018.10.19 1525 UTC
Wind: from the E (090 degrees) at 6 MPH (5 KT):0
Visibility: 10 mile(s):0
Sky conditions: overcast
Temperature: 75.0 F (23.9 C)
Dew Point: 66.9 F (19.4 C)
Relative Humidity: 75%
Pressure (altimeter): 30.26 in. Hg (1024 hPa)
ob: KCEW 191525Z AUTO 09005KT 10SM OVC010 24/19 A3026 RMK AO2 T02390194
cycle: 15

Station Type Date Time Source
KCEW TAF UTC NOAA

Error!


Example: see airport list